Time;durP1;ratioP1;P1;durP2;ratioP2;P2;SDS_P1;SDS_P2;PMS_P1;PMS_P2;Temp;Humidity;BMP_temperature;BMP_pressure;BME280_temperature;BME280_humidity;BME280_pressure;Samples;Min_cycle;Max_cycle;Signal;HPM_P1;HPM_P2
2023/04/30 00:01:59;;;;;;;18.60;15.70;;;;;;;13.14;79.71;100432.18;105512;1262;98464;-83
2023/04/30 00:04:45;;;;;;;21.50;16.50;;;;;;;13.14;79.93;100429.49;105529;1262;102718;-83
2023/04/30 00:07:31;;;;;;;20.00;15.10;;;;;;;13.14;80.66;100426.48;105252;1262;99332;-82
2023/04/30 00:10:16;;;;;;;19.30;16.20;;;;;;;13.15;80.80;100422.30;105329;1262;97973;-83
2023/04/30 00:13:02;;;;;;;21.30;16.40;;;;;;;13.18;80.95;100422.27;105310;1263;97987;-83
2023/04/30 00:15:47;;;;;;;20.50;15.70;;;;;;;13.21;81.14;100422.71;105570;1270;97926;-83
2023/04/30 00:18:32;;;;;;;21.30;16.10;;;;;;;13.23;81.59;100422.42;105572;1262;102246;-84
2023/04/30 00:21:18;;;;;;;19.00;15.40;;;;;;;13.24;81.89;100421.64;105412;1267;99125;-84
2023/04/30 00:24:03;;;;;;;20.80;15.50;;;;;;;13.25;81.99;100423.45;105430;1262;98546;-84
2023/04/30 00:26:49;;;;;;;18.90;15.30;;;;;;;13.25;82.21;100422.59;105394;1261;97998;-83
2023/04/30 00:29:34;;;;;;;19.10;14.80;;;;;;;13.24;82.38;100427.71;105470;1263;97955;-82
2023/04/30 00:32:20;;;;;;;19.60;14.70;;;;;;;13.21;82.86;100427.92;105380;1265;101368;-82
2023/04/30 00:35:07;;;;;;;17.90;14.20;;;;;;;13.20;83.05;100428.97;105507;1263;100448;-83
2023/04/30 00:37:52;;;;;;;19.20;15.60;;;;;;;13.20;83.51;100430.41;105605;1262;97967;-83
2023/04/30 00:40:40;;;;;;;16.80;13.80;;;;;;;13.19;83.55;100433.34;105418;1262;98036;-83
2023/04/30 00:43:26;;;;;;;21.90;14.80;;;;;;;13.18;83.91;100431.77;105506;1266;98510;-83
2023/04/30 00:46:11;;;;;;;20.00;15.20;;;;;;;13.18;83.95;100432.11;105505;1262;101340;-82
2023/04/30 00:48:58;;;;;;;18.40;14.70;;;;;;;13.19;84.62;100432.67;105448;1268;99078;-83
2023/04/30 00:51:44;;;;;;;17.30;15.10;;;;;;;13.19;84.51;100434.38;105609;1267;97961;-83
2023/04/30 00:54:30;;;;;;;18.20;14.80;;;;;;;13.20;84.79;100436.09;105810;1262;97975;-83
2023/04/30 00:57:16;;;;;;;19.80;16.20;;;;;;;13.22;84.97;100438.52;105370;1263;98490;-83
2023/04/30 01:00:03;;;;;;;18.40;15.30;;;;;;;13.23;85.27;100438.35;105492;1262;101337;-82
2023/04/30 01:02:49;;;;;;;17.90;15.40;;;;;;;13.23;85.23;100438.23;105371;1270;99105;-84
2023/04/30 01:05:34;;;;;;;21.70;16.60;;;;;;;13.22;85.53;100438.85;105474;1265;97881;-83
2023/04/30 01:08:20;;;;;;;21.50;17.00;;;;;;;13.21;85.81;100439.54;105382;1262;98103;-82
2023/04/30 01:11:27;;;;;;;21.10;17.60;;;;;;;13.21;86.00;100437.73;105561;1262;98953;-82
2023/04/30 01:14:32;;;;;;;22.10;17.30;;;;;;;13.20;86.44;100440.99;105465;1261;101337;-82
2023/04/30 01:17:34;;;;;;;21.80;16.90;;;;;;;13.18;86.97;100445.55;105477;1262;99094;-83
2023/04/30 01:20:20;;;;;;;21.60;18.50;;;;;;;13.14;87.39;100448.74;105368;1262;97882;-83
2023/04/30 01:23:33;;;;;;;22.60;19.30;;;;;;;13.09;87.85;100455.08;105473;1268;99212;-82
2023/04/30 01:26:21;;;;;;;26.40;20.10;;;;;;;13.06;88.64;100457.95;105358;1269;98565;-82
2023/04/30 01:29:11;;;;;;;24.70;19.90;;;;;;;13.03;89.23;100462.07;105610;1262;101413;-82
2023/04/30 01:31:56;;;;;;;26.00;20.60;;;;;;;13.00;89.27;100460.62;105320;1262;100044;-83
2023/04/30 01:34:42;;;;;;;25.10;20.70;;;;;;;12.98;89.63;100464.54;105349;1268;98637;-83
2023/04/30 01:37:39;;;;;;;26.40;21.40;;;;;;;12.94;90.14;100464.16;105416;1268;97990;-82
2023/04/30 01:40:40;;;;;;;25.10;20.50;;;;;;;12.89;90.40;100470.23;105689;1262;98552;-82
2023/04/30 01:43:44;;;;;;;20.60;16.40;;;;;;;12.76;90.43;100476.34;105461;1268;101344;-83
2023/04/30 01:46:30;;;;;;;18.10;13.50;;;;;;;12.61;90.34;100481.67;105583;1265;99252;-83
2023/04/30 01:49:44;;;;;;;19.20;15.00;;;;;;;12.51;89.74;100486.89;105391;1263;98908;-81
2023/04/30 01:52:42;;;;;;;18.80;15.10;;;;;;;12.37;89.78;100488.08;105561;1262;98310;-83
2023/04/30 01:55:48;;;;;;;21.00;15.90;;;;;;;12.25;89.51;100497.21;105458;1262;98589;-81
2023/04/30 01:58:36;;;;;;;18.30;16.30;;;;;;;12.14;89.59;100500.71;105489;1262;102188;-83
2023/04/30 02:01:31;;;;;;;20.40;14.50;;;;;;;12.05;89.96;100504.63;105542;1262;100089;-82
2023/04/30 02:04:16;;;;;;;19.00;16.50;;;;;;;11.97;90.13;100507.27;105449;1262;97980;-81
2023/04/30 02:07:02;;;;;;;20.40;16.60;;;;;;;11.90;89.93;100513.63;105432;1262;97972;-81
2023/04/30 02:09:47;;;;;;;22.10;16.60;;;;;;;11.84;90.00;100516.44;105488;1268;98400;-82
2023/04/30 02:12:33;;;;;;;19.30;16.10;;;;;;;11.75;90.39;100513.28;105498;1263;102621;-82
2023/04/30 02:15:19;;;;;;;21.40;17.30;;;;;;;11.69;90.38;100515.84;105487;1266;99088;-84
2023/04/30 02:18:05;;;;;;;20.00;16.00;;;;;;;11.67;90.83;100517.34;105295;1264;99213;-81
2023/04/30 02:20:51;;;;;;;21.00;18.20;;;;;;;11.62;91.25;100519.27;105457;1263;98053;-82
2023/04/30 02:23:36;;;;;;;20.60;16.80;;;;;;;11.55;91.50;100520.86;105583;1265;97877;-82
2023/04/30 02:26:22;;;;;;;20.50;17.80;;;;;;;11.50;92.13;100522.20;105602;1262;102601;-82
2023/04/30 02:29:08;;;;;;;20.40;18.10;;;;;;;11.48;92.30;100522.84;105576;1262;100366;-81
2023/04/30 02:31:57;;;;;;;23.80;19.20;;;;;;;11.42;92.66;100528.56;105483;1262;98567;-83
2023/04/30 02:34:43;;;;;;;23.00;19.40;;;;;;;11.37;92.94;100538.50;105510;1262;97920;-82
2023/04/30 02:37:28;;;;;;;23.40;19.40;;;;;;;11.35;93.29;100542.60;105530;1262;97922;-81
2023/04/30 02:40:14;;;;;;;24.10;19.60;;;;;;;11.34;93.66;100546.41;105368;1267;102441;-81
2023/04/30 02:43:00;;;;;;;27.20;21.00;;;;;;;11.31;94.07;100550.86;105636;1262;99100;-83
2023/04/30 02:45:46;;;;;;;28.30;22.50;;;;;;;11.26;94.13;100553.50;105300;1268;99089;-81
2023/04/30 02:48:31;;;;;;;26.10;20.70;;;;;;;11.17;94.28;100557.90;105339;1262;97903;-81
2023/04/30 02:51:16;;;;;;;32.30;24.80;;;;;;;11.08;94.37;100561.20;105424;1268;98547;-81
2023/04/30 02:54:02;;;;;;;30.80;25.20;;;;;;;11.03;94.99;100564.26;105601;1267;101342;-81
2023/04/30 02:56:48;;;;;;;32.60;25.80;;;;;;;11.00;95.13;100571.11;105259;1267;99167;-81
2023/04/30 02:59:33;;;;;;;32.70;26.80;;;;;;;10.95;95.22;100573.69;105491;1267;97890;-82
2023/04/30 03:02:20;;;;;;;32.30;24.90;;;;;;;10.91;95.02;100572.77;105388;1260;97952;-83
2023/04/30 03:05:06;;;;;;;30.40;20.60;;;;;;;10.85;94.89;100578.75;105435;1263;98508;-83
2023/04/30 03:07:51;;;;;;;23.60;19.00;;;;;;;10.79;93.96;100579.43;105505;1262;102619;-83
2023/04/30 03:10:36;;;;;;;24.50;17.90;;;;;;;10.70;92.49;100582.24;105112;1263;108862;-82
2023/04/30 03:13:24;;;;;;;21.80;15.70;;;;;;;10.59;91.08;100589.42;105436;1262;107100;-81
2023/04/30 03:16:10;;;;;;;20.70;16.30;;;;;;;10.50;90.65;100590.77;105575;1267;97894;-82
2023/04/30 03:18:56;;;;;;;24.40;16.30;;;;;;;10.43;90.47;100596.29;105608;1262;99565;-82
2023/04/30 03:21:42;;;;;;;20.90;15.80;;;;;;;10.37;90.44;100605.77;105487;1269;102601;-82
2023/04/30 03:24:27;;;;;;;20.70;16.00;;;;;;;10.33;90.37;100610.50;105632;1265;100767;-82
2023/04/30 03:27:13;;;;;;;19.50;14.50;;;;;;;10.30;90.36;100615.52;105396;1262;98001;-82
2023/04/30 03:29:58;;;;;;;24.00;17.00;;;;;;;10.30;90.97;100621.81;105338;1269;97863;-84
2023/04/30 03:32:44;;;;;;;23.40;17.70;;;;;;;10.30;90.98;100621.90;105443;1262;97885;-82
2023/04/30 03:35:29;;;;;;;24.30;17.10;;;;;;;10.30;91.08;100626.59;105331;1267;101332;-81
2023/04/30 03:38:15;;;;;;;25.10;16.60;;;;;;;10.27;90.95;100623.58;105226;1266;122726;-81
2023/04/30 03:41:01;;;;;;;25.80;16.60;;;;;;;10.23;90.70;100626.54;105344;1262;97981;-81
2023/04/30 03:43:46;;;;;;;24.00;16.80;;;;;;;10.20;90.22;100631.71;105469;1265;97972;-82
2023/04/30 03:46:32;;;;;;;21.30;16.50;;;;;;;10.18;90.26;100632.88;105339;1262;99775;-83
2023/04/30 03:49:17;;;;;;;20.80;16.10;;;;;;;10.21;90.45;100637.77;105527;1265;102129;-81
2023/04/30 03:52:05;;;;;;;26.30;17.70;;;;;;;10.23;90.31;100639.83;105418;1263;100062;-81
2023/04/30 03:54:51;;;;;;;23.10;15.70;;;;;;;10.26;90.60;100648.36;105589;1267;107302;-82
2023/04/30 03:57:39;;;;;;;21.50;15.30;;;;;;;10.29;90.62;100649.35;105566;1265;97952;-82
2023/04/30 04:00:25;;;;;;;23.20;16.30;;;;;;;10.32;90.53;100654.55;105399;1262;98491;-81
2023/04/30 04:03:11;;;;;;;22.90;17.10;;;;;;;10.36;90.42;100658.35;105478;1262;102540;-82
2023/04/30 04:05:59;;;;;;;23.30;18.10;;;;;;;10.39;90.87;100666.52;105636;1261;100489;-82
2023/04/30 04:08:45;;;;;;;28.60;19.30;;;;;;;10.42;91.01;100672.11;105347;1265;99619;-82
2023/04/30 04:11:31;;;;;;;28.30;20.50;;;;;;;10.42;91.17;100673.81;105486;1263;97985;-81
2023/04/30 04:14:16;;;;;;;32.40;22.80;;;;;;;10.40;91.44;100676.75;105493;1262;98014;-81
2023/04/30 04:17:04;;;;;;;28.60;20.90;;;;;;;10.39;91.36;100682.33;105491;1262;101376;-81
2023/04/30 04:19:50;;;;;;;24.60;20.20;;;;;;;10.34;90.82;100689.55;105412;1267;99099;-81
2023/04/30 04:22:36;;;;;;;24.90;20.50;;;;;;;10.31;90.96;100698.23;105396;1262;97967;-81
2023/04/30 04:25:24;;;;;;;28.40;19.00;;;;;;;10.27;90.58;100699.23;105554;1262;98953;-81
2023/04/30 04:28:09;;;;;;;28.40;19.70;;;;;;;10.23;90.74;100703.55;105324;1265;98390;-82
2023/04/30 04:30:55;;;;;;;26.50;19.10;;;;;;;10.18;90.33;100706.93;105342;1262;101304;-81
2023/04/30 04:33:40;;;;;;;26.10;19.10;;;;;;;10.16;90.25;100710.92;105452;1262;99172;-82
2023/04/30 04:36:27;;;;;;;25.50;20.00;;;;;;;10.12;90.33;100715.30;105306;1268;98008;-82
2023/04/30 04:39:13;;;;;;;25.00;18.10;;;;;;;10.11;90.40;100714.95;105376;1262;99140;-81
2023/04/30 04:42:00;;;;;;;25.50;19.40;;;;;;;10.13;90.45;100722.13;105313;1270;97736;-82
2023/04/30 04:44:45;;;;;;;25.00;17.10;;;;;;;10.16;90.62;100730.33;105472;1264;101344;-82
2023/04/30 04:47:32;;;;;;;25.20;17.50;;;;;;;10.16;90.07;100737.73;105384;1262;101022;-82
2023/04/30 04:50:17;;;;;;;22.80;17.00;;;;;;;10.10;89.44;100741.77;105563;1262;99089;-83
2023/04/30 04:53:03;;;;;;;23.40;14.80;;;;;;;10.04;89.02;100743.52;105408;1268;100176;-83
2023/04/30 04:55:48;;;;;;;22.60;16.10;;;;;;;9.96;88.13;100748.73;105479;1267;97050;-82
2023/04/30 04:58:34;;;;;;;24.50;16.30;;;;;;;9.89;87.92;100754.98;105377;1265;101344;-82
2023/04/30 05:01:21;;;;;;;18.80;14.50;;;;;;;9.83;87.80;100758.33;105524;1268;99974;-83
2023/04/30 05:04:08;;;;;;;23.70;16.00;;;;;;;9.82;87.92;100760.61;105369;1267;97952;-82
2023/04/30 05:06:53;;;;;;;21.20;15.20;;;;;;;9.81;87.83;100763.56;105250;1268;97869;-81
2023/04/30 05:09:38;;;;;;;18.50;14.20;;;;;;;9.82;87.60;100762.21;105272;1262;98484;-82
2023/04/30 05:12:24;;;;;;;23.20;14.30;;;;;;;9.79;87.21;100766.78;105517;1267;101344;-82
2023/04/30 05:15:10;;;;;;;19.50;14.90;;;;;;;9.79;87.49;100775.41;105369;1265;100350;-82
2023/04/30 05:17:56;;;;;;;19.50;13.80;;;;;;;9.78;87.34;100781.90;105430;1267;98465;-82
2023/04/30 05:20:41;;;;;;;18.10;12.50;;;;;;;9.78;87.38;100785.48;105406;1270;98039;-83
2023/04/30 05:23:27;;;;;;;18.50;13.70;;;;;;;9.75;86.81;100789.90;105472;1262;97972;-81
2023/04/30 05:26:12;;;;;;;21.30;13.50;;;;;;;9.70;86.22;100793.69;105265;1270;102715;-83
2023/04/30 05:28:58;;;;;;;18.40;12.90;;;;;;;9.64;85.74;100798.38;105541;1267;99165;-82
2023/04/30 05:31:43;;;;;;;22.20;13.40;;;;;;;9.61;86.00;100799.23;105373;1267;97933;-82
2023/04/30 05:34:28;;;;;;;19.20;12.20;;;;;;;9.65;86.02;100799.50;105554;1266;97869;-82
2023/04/30 05:37:16;;;;;;;16.80;12.40;;;;;;;9.76;86.28;100803.05;105628;1262;97833;-82
2023/04/30 05:40:02;;;;;;;21.20;12.80;;;;;;;9.85;85.68;100809.14;105498;1262;102018;-81
2023/04/30 05:42:48;;;;;;;16.90;11.80;;;;;;;9.90;85.32;100816.30;105376;1263;100363;-80
2023/04/30 05:45:33;;;;;;;19.10;11.90;;;;;;;9.98;85.28;100818.29;105366;1268;99295;-81
2023/04/30 05:48:18;;;;;;;16.20;11.40;;;;;;;10.07;85.18;100819.70;105363;1263;97987;-83
2023/04/30 05:51:05;;;;;;;17.80;10.90;;;;;;;10.18;84.91;100824.87;105536;1266;97955;-83
2023/04/30 05:53:51;;;;;;;15.60;11.00;;;;;;;10.24;83.67;100829.02;105662;1262;102652;-82
2023/04/30 05:56:37;;;;;;;21.30;10.70;;;;;;;10.32;83.67;100829.69;105334;1267;100385;-82
2023/04/30 05:59:22;;;;;;;18.80;10.10;;;;;;;10.43;83.51;100831.08;105490;1263;98073;-83
2023/04/30 06:02:08;;;;;;;14.60;10.30;;;;;;;10.51;82.34;100836.16;105510;1262;99157;-82
2023/04/30 06:04:53;;;;;;;17.80;9.80;;;;;;;10.52;81.41;100838.40;105440;1267;98417;-82
2023/04/30 06:07:39;;;;;;;14.30;9.00;;;;;;;10.52;79.71;100837.45;105555;1263;101492;-83
2023/04/30 06:10:24;;;;;;;17.20;7.70;;;;;;;10.50;78.93;100837.14;105572;1266;99103;-82
2023/04/30 06:13:10;;;;;;;11.50;6.50;;;;;;;10.54;78.33;100840.91;105577;1262;97978;-83
2023/04/30 06:15:55;;;;;;;14.60;7.20;;;;;;;10.59;78.22;100841.16;105720;1262;97929;-83
2023/04/30 06:18:41;;;;;;;13.60;7.20;;;;;;;10.70;77.96;100845.76;105730;1268;98077;-87
2023/04/30 06:21:27;;;;;;;11.90;6.70;;;;;;;10.79;77.82;100848.95;105807;1262;103655;-82
2023/04/30 06:24:15;;;;;;;9.50;6.50;;;;;;;10.88;76.70;100848.10;105611;1267;99066;-80
2023/04/30 06:27:01;;;;;;;10.70;6.30;;;;;;;10.95;76.43;100845.00;105516;1262;98032;-80
2023/04/30 06:29:47;;;;;;;11.40;6.40;;;;;;;11.07;76.16;100850.32;105548;1262;98002;-82
2023/04/30 06:32:32;;;;;;;12.10;6.20;;;;;;;11.16;75.81;100848.48;105532;1268;99637;-82
2023/04/30 06:35:18;;;;;;;10.30;7.00;;;;;;;11.30;75.31;100850.71;105301;1262;110541;-81
2023/04/30 06:38:03;;;;;;;7.70;5.20;;;;;;;11.36;74.64;100850.37;105561;1265;99184;-82
2023/04/30 06:40:49;;;;;;;9.30;6.10;;;;;;;11.41;73.61;100850.44;105518;1262;98565;-81
2023/04/30 06:43:35;;;;;;;10.40;6.10;;;;;;;11.46;73.38;100856.79;105465;1267;98003;-81
2023/04/30 06:46:21;;;;;;;7.90;5.10;;;;;;;11.47;72.12;100860.14;105304;1271;97985;-83
2023/04/30 06:49:06;;;;;;;8.70;4.70;;;;;;;11.44;71.41;100866.33;105518;1267;101312;-77
2023/04/30 06:51:53;;;;;;;8.60;4.80;;;;;;;11.41;70.44;100861.80;105125;1263;99108;-77
2023/04/30 06:54:38;;;;;;;13.10;4.00;;;;;;;11.41;69.92;100867.94;105507;1265;98459;-80
2023/04/30 06:57:24;;;;;;;12.80;4.50;;;;;;;11.39;69.00;100871.91;105203;1268;98056;-78
2023/04/30 07:00:11;;;;;;;9.80;4.40;;;;;;;11.40;68.85;100866.73;105158;1263;98498;-76
2023/04/30 07:02:59;;;;;;;16.50;4.50;;;;;;;11.43;68.84;100863.69;105743;1266;101377;-79
2023/04/30 07:05:45;;;;;;;14.10;4.30;;;;;;;11.53;69.68;100868.77;105107;1268;100172;-80
2023/04/30 07:08:30;;;;;;;8.00;3.80;;;;;;;11.67;69.76;100867.48;105635;1262;99012;-78
2023/04/30 07:11:15;;;;;;;8.30;4.10;;;;;;;11.76;68.85;100869.75;104746;1266;98102;-77
2023/04/30 07:14:00;;;;;;;10.10;3.80;;;;;;;11.84;68.50;100873.27;105539;1267;97968;-78
2023/04/30 07:16:49;;;;;;;8.50;3.90;;;;;;;11.90;67.68;100878.19;105620;1267;102697;-78
2023/04/30 07:19:34;;;;;;;11.20;4.40;;;;;;;11.90;66.52;100880.32;105109;1268;99216;-83
2023/04/30 07:22:20;;;;;;;7.10;4.00;;;;;;;11.87;65.97;100879.10;105150;1268;98075;-78
2023/04/30 07:25:06;;;;;;;6.10;4.00;;;;;;;11.85;65.97;100882.33;105047;1266;97974;-77
2023/04/30 07:27:52;;;;;;;5.20;3.20;;;;;;;11.91;66.14;100883.24;105126;1266;98467;-76
2023/04/30 07:30:38;;;;;;;9.50;3.30;;;;;;;11.97;65.15;100889.83;105106;1268;102616;-76
2023/04/30 07:33:23;;;;;;;5.70;3.10;;;;;;;11.97;64.05;100892.67;104977;1263;99216;-77
2023/04/30 07:36:10;;;;;;;5.70;3.20;;;;;;;11.97;63.98;100895.20;105034;1262;99155;-78
2023/04/30 07:38:55;;;;;;;7.30;3.80;;;;;;;12.02;63.88;100899.36;104759;1263;98507;-77
2023/04/30 07:41:42;;;;;;;8.90;3.30;;;;;;;12.00;62.42;100903.55;104802;1262;97959;-76
2023/04/30 07:44:27;;;;;;;6.00;3.00;;;;;;;11.96;61.74;100901.63;104763;1268;102626;-77
2023/04/30 07:47:13;;;;;;;9.20;2.80;;;;;;;11.98;61.72;100904.38;104732;1263;99242;-76
2023/04/30 07:49:58;;;;;;;6.00;2.30;;;;;;;11.97;59.04;100903.09;104713;1262;99127;-77
2023/04/30 07:52:44;;;;;;;6.00;3.20;;;;;;;11.98;57.96;100911.20;104716;1267;98019;-77
2023/04/30 07:55:30;;;;;;;7.00;2.40;;;;;;;12.01;57.01;100910.11;104721;1262;98482;-76
2023/04/30 07:58:15;;;;;;;3.20;2.10;;;;;;;12.05;56.42;100911.20;104713;1262;102624;-76
2023/04/30 08:01:01;;;;;;;8.10;2.20;;;;;;;12.05;55.55;100917.22;105124;1267;99992;-77
2023/04/30 08:03:46;;;;;;;6.70;2.20;;;;;;;12.02;55.44;100922.14;104744;1266;98309;-86
2023/04/30 08:06:32;;;;;;;5.20;2.50;;;;;;;12.00;55.12;100923.15;105458;1262;97964;-82
2023/04/30 08:09:17;;;;;;;4.40;2.10;;;;;;;12.04;55.85;100926.96;105547;1262;98473;-82
2023/04/30 08:12:03;;;;;;;5.40;2.30;;;;;;;12.07;53.96;100931.38;105580;1263;102658;-81
2023/04/30 08:14:58;;;;;;;8.20;2.10;;;;;;;12.05;53.19;100929.79;105425;1262;99077;-83
2023/04/30 08:17:43;;;;;;;4.30;2.50;;;;;;;12.04;53.39;100926.47;105414;1270;99622;-82
2023/04/30 08:20:29;;;;;;;4.30;2.10;;;;;;;12.10;54.36;100928.23;105634;1268;97782;-82
2023/04/30 08:23:15;;;;;;;5.60;2.50;;;;;;;12.15;53.91;100934.29;106023;1266;98445;-79
2023/04/30 08:26:01;;;;;;;4.20;2.50;;;;;;;12.16;52.88;100939.58;105165;1268;102649;-81
2023/04/30 08:28:47;;;;;;;6.90;3.30;;;;;;;12.10;53.26;100943.27;106015;1263;99078;-81
2023/04/30 08:31:34;;;;;;;8.00;2.90;;;;;;;12.11;54.80;100941.80;105838;1264;97996;-81
2023/04/30 08:34:19;;;;;;;9.10;3.30;;;;;;;12.14;54.42;100944.98;105723;1263;97867;-79
2023/04/30 08:37:06;;;;;;;7.30;2.60;;;;;;;12.17;53.63;100945.30;105412;1267;97952;-78
2023/04/30 08:39:51;;;;;;;5.40;2.00;;;;;;;12.21;53.81;100942.63;105373;1267;101337;-79
2023/04/30 08:42:43;;;;;;;4.00;2.40;;;;;;;12.26;53.39;100947.42;105202;1263;99859;-78
2023/04/30 08:45:31;;;;;;;8.40;2.40;;;;;;;12.32;53.74;100947.04;105257;1262;98992;-79
2023/04/30 08:48:18;;;;;;;4.40;2.10;;;;;;;12.39;53.65;100950.02;105333;1266;98052;-79
2023/04/30 08:51:03;;;;;;;5.20;2.50;;;;;;;12.42;53.09;100949.36;105345;1266;98559;-82
2023/04/30 08:53:50;;;;;;;5.50;2.40;;;;;;;12.40;53.11;100953.68;105487;1263;102605;-80
2023/04/30 08:56:35;;;;;;;4.60;2.00;;;;;;;12.40;52.37;100950.73;105513;1266;100336;-81
2023/04/30 08:59:21;;;;;;;4.40;1.80;;;;;;;12.38;52.35;100950.38;105640;1263;99360;-80
2023/04/30 09:02:09;;;;;;;7.30;2.60;;;;;;;12.45;53.19;100948.06;105487;1269;97999;-81
2023/04/30 09:04:55;;;;;;;6.90;2.00;;;;;;;12.56;53.59;100947.23;105416;1263;97863;-81
2023/04/30 09:07:43;;;;;;;4.10;2.00;;;;;;;12.63;53.13;100949.95;105739;1263;101339;-79
2023/04/30 09:10:32;;;;;;;4.70;2.40;;;;;;;12.70;52.12;100951.58;105486;1267;99289;-79
2023/04/30 09:13:18;;;;;;;4.00;1.90;;;;;;;12.67;51.80;100958.38;105675;1268;98426;-79
2023/04/30 09:16:04;;;;;;;6.00;1.70;;;;;;;12.68;50.98;100959.46;106023;1263;97974;-79
2023/04/30 09:18:49;;;;;;;3.20;1.30;;;;;;;12.69;50.89;100956.20;105504;1263;98472;-80
2023/04/30 09:21:36;;;;;;;3.60;1.40;;;;;;;12.75;50.28;100958.96;105571;1268;101364;-79
2023/04/30 09:24:22;;;;;;;3.80;1.60;;;;;;;12.78;49.94;100962.20;105302;1262;100456;-80
2023/04/30 09:27:19;;;;;;;5.20;1.90;;;;;;;12.82;49.88;100965.42;105360;1267;97935;-78
2023/04/30 09:30:05;;;;;;;4.10;1.70;;;;;;;12.89;49.81;100966.62;105399;1263;98007;-79
2023/04/30 09:32:55;;;;;;;3.30;1.20;;;;;;;12.92;50.40;100962.16;105476;1263;98498;-78
2023/04/30 09:35:41;;;;;;;5.50;1.70;;;;;;;12.91;49.46;100973.25;105613;1266;102667;-80
2023/04/30 09:38:31;;;;;;;3.80;1.60;;;;;;;12.85;48.62;100976.01;105682;1262;100010;-80
2023/04/30 09:41:26;;;;;;;3.00;1.50;;;;;;;12.81;48.90;100975.60;105745;1266;106320;-80
2023/04/30 09:44:35;;;;;;;4.10;1.70;;;;;;;12.78;47.60;100978.27;105575;1263;97993;-77
2023/04/30 09:47:20;;;;;;;3.20;1.70;;;;;;;12.84;48.37;100980.84;105716;1262;97893;-80
2023/04/30 09:50:06;;;;;;;4.40;1.80;;;;;;;12.86;49.26;100981.04;105293;1262;102817;-78
2023/04/30 09:52:53;;;;;;;6.60;2.10;;;;;;;12.89;50.21;100988.42;105251;1262;100920;-78
2023/04/30 09:55:42;;;;;;;3.00;2.00;;;;;;;12.98;50.08;100984.95;105148;1267;99064;-76
2023/04/30 09:58:30;;;;;;;5.50;1.90;;;;;;;12.99;49.72;100973.96;104821;1262;97987;-78
2023/04/30 10:01:17;;;;;;;2.90;1.70;;;;;;;13.06;49.56;100977.77;105112;1262;98559;-78
2023/04/30 10:04:04;;;;;;;5.40;2.00;;;;;;;13.08;48.94;100979.65;104911;1268;102248;-77
2023/04/30 10:06:53;;;;;;;5.70;2.30;;;;;;;13.05;49.71;100973.37;104744;1266;100458;-77
2023/04/30 10:09:47;;;;;;;6.10;1.80;;;;;;;13.19;50.18;100976.05;104805;1267;98190;-79
2023/04/30 10:12:43;;;;;;;4.80;2.00;;;;;;;13.28;48.88;100975.96;105184;1268;97963;-81
2023/04/30 10:15:34;;;;;;;7.50;1.70;;;;;;;13.27;48.21;100974.42;105414;1268;98419;-77
2023/04/30 10:18:30;;;;;;;3.70;1.70;;;;;;;13.26;47.21;100973.55;105314;1268;101377;-78
2023/04/30 10:21:17;;;;;;;5.10;2.00;;;;;;;13.22;48.08;100970.36;105494;1262;99093;-79
2023/04/30 10:24:03;;;;;;;5.10;2.20;;;;;;;13.24;47.50;100975.76;105380;1268;97961;-79
2023/04/30 10:26:49;;;;;;;2.00;1.60;;;;;;;13.22;46.58;100983.38;105318;1262;97962;-80
2023/04/30 10:29:34;;;;;;;3.60;1.60;;;;;;;13.16;46.21;100977.61;105432;1265;97960;-77
2023/04/30 10:32:21;;;;;;;4.30;1.60;;;;;;;13.18;46.81;100978.28;105005;1267;102577;-78
2023/04/30 10:35:18;;;;;;;6.80;1.70;;;;;;;13.22;45.76;100979.69;104971;1263;99210;-77
2023/04/30 10:38:21;;;;;;;6.20;1.70;;;;;;;13.27;46.88;100974.77;105135;1262;98457;-77
2023/04/30 10:41:08;;;;;;;11.70;1.80;;;;;;;13.37;47.12;100979.71;105103;1266;98037;-77
2023/04/30 10:44:00;;;;;;;4.70;1.70;;;;;;;13.39;47.00;100976.13;104995;1262;97913;-77
2023/04/30 10:46:45;;;;;;;4.00;1.70;;;;;;;13.41;46.39;100979.29;104976;1267;102647;-78
2023/04/30 10:53:03;;;;;;;3.20;1.30;;;;;;;13.44;46.63;100975.38;106510;1262;100857;31
2023/04/30 10:56:05;;;;;;;4.80;1.50;;;;;;;13.48;45.24;100984.98;104647;1273;98005;-78
2023/04/30 10:58:51;;;;;;;3.90;1.60;;;;;;;13.44;45.03;100980.85;105307;1270;98494;-79
2023/04/30 11:01:55;;;;;;;1.90;1.20;;;;;;;13.44;45.32;100979.03;105533;1268;101350;-79
2023/04/30 11:05:10;;;;;;;4.80;1.20;;;;;;;13.44;45.11;100983.38;105053;1274;99131;-79
2023/04/30 11:07:57;;;;;;;6.90;1.70;;;;;;;13.46;45.53;100977.48;104955;1270;99028;-79
2023/04/30 11:11:00;;;;;;;4.20;1.30;;;;;;;13.56;45.72;100975.47;104644;1271;98014;-78
2023/04/30 11:13:56;;;;;;;5.50;1.40;;;;;;;13.69;45.20;100980.98;104712;1268;98507;-77
2023/04/30 11:16:42;;;;;;;3.50;1.50;;;;;;;13.71;44.86;100983.81;104694;1269;102569;-78
2023/04/30 11:19:31;;;;;;;3.50;1.80;;;;;;;13.66;44.66;100978.88;104721;1271;99119;-78
2023/04/30 11:22:28;;;;;;;3.00;1.30;;;;;;;13.63;45.31;100975.71;106102;1262;97860;31
2023/04/30 11:25:22;;;;;;;3.00;1.30;;;;;;;13.69;45.06;100974.69;104706;1282;98094;-77
2023/04/30 11:28:16;;;;;;;3.40;1.40;;;;;;;13.73;45.09;100983.58;104693;1268;97968;-78
2023/04/30 11:31:03;;;;;;;5.30;1.30;;;;;;;13.75;45.10;100980.33;104681;1274;102173;-78
2023/04/30 11:33:49;;;;;;;5.40;1.90;;;;;;;13.79;44.38;100986.30;104814;1271;100075;-78
2023/04/30 11:36:35;;;;;;;5.50;1.70;;;;;;;13.80;43.75;100980.21;104747;1272;107088;-78
2023/04/30 11:39:23;;;;;;;3.20;1.50;;;;;;;13.85;44.69;100980.70;104673;1271;98134;-77
2023/04/30 11:42:09;;;;;;;4.60;1.20;;;;;;;13.99;45.06;100981.77;104680;1273;99578;-77
2023/04/30 11:45:05;;;;;;;4.20;1.20;;;;;;;14.10;44.08;100992.31;104555;1273;102566;-77
2023/04/30 11:47:53;;;;;;;3.30;1.40;;;;;;;14.04;43.37;100991.86;104549;1268;99743;-78
2023/04/30 11:50:41;;;;;;;7.00;1.60;;;;;;;14.02;43.62;100989.25;104619;1268;97978;-78
2023/04/30 11:53:28;;;;;;;4.80;1.20;;;;;;;14.08;43.51;100990.23;104802;1273;97907;-78
2023/04/30 11:56:21;;;;;;;2.30;1.30;;;;;;;14.14;43.35;100988.48;104875;1273;97910;-80
2023/04/30 11:59:10;;;;;;;4.10;1.50;;;;;;;14.12;42.74;100993.66;104925;1269;103159;-82
2023/04/30 12:01:56;;;;;;;2.30;1.20;;;;;;;14.12;42.91;100994.92;105440;1270;99128;-81
2023/04/30 12:04:45;;;;;;;3.20;1.40;;;;;;;14.18;43.41;100982.98;105368;1274;99438;-84
2023/04/30 12:07:31;;;;;;;2.70;1.20;;;;;;;14.26;43.27;100991.73;105257;1268;97988;-85
2023/04/30 12:11:08;;;;;;;3.70;1.40;;;;;;;14.33;43.11;100993.52;105256;1271;97982;-85
2023/04/30 12:14:24;;;;;;;2.30;1.10;;;;;;;14.44;42.82;100994.89;105225;1273;102656;-86
2023/04/30 12:17:10;;;;;;;2.30;1.10;;;;;;;14.44;42.04;100994.02;105141;1274;101280;-84
2023/04/30 12:19:56;;;;;;;6.80;1.10;;;;;;;14.36;42.02;100991.13;105296;1272;97819;-86
2023/04/30 12:22:43;;;;;;;1.50;0.80;;;;;;;14.36;41.76;100995.20;105445;1273;98064;-84
2023/04/30 12:25:29;;;;;;;2.70;1.30;;;;;;;14.44;42.03;100996.98;105243;1271;99170;-83
2023/04/30 12:28:15;;;;;;;4.00;1.30;;;;;;;14.50;41.06;101001.30;105180;1268;102134;-84
2023/04/30 12:31:01;;;;;;;4.20;1.50;;;;;;;14.50;40.97;100997.93;105212;1271;99600;-82
2023/04/30 12:33:55;;;;;;;3.50;1.10;;;;;;;14.44;40.99;100990.96;105260;1271;100007;-86
2023/04/30 12:36:41;;;;;;;1.90;1.20;;;;;;;14.44;41.38;100993.19;105161;1276;98095;-84
2023/04/30 12:39:32;;;;;;;5.20;1.30;;;;;;;14.46;40.94;100997.39;105597;1267;97985;-81
2023/04/30 12:42:18;;;;;;;;;;;;;;;14.46;41.20;101000.21;105364;1273;101365;-82
2023/04/30 12:45:05;;;;;;;4.20;1.40;;;;;;;14.45;41.49;100994.94;105480;1273;100452;-81